sensor_id;sensor_type;location;lat;lon;timestamp;pressure;altitude;pressure_sealevel;temperature;humidity
32067;BME280;18573;47.890;35.066;2022-12-18T00:01:29;100502.55;;;11.62;100.00
32067;BME280;18573;47.890;35.066;2022-12-18T00:04:00;100505.42;;;11.61;100.00
32067;BME280;18573;47.890;35.066;2022-12-18T00:06:31;100509.25;;;11.62;100.00
32067;BME280;18573;47.890;35.066;2022-12-18T00:09:02;100505.37;;;11.43;100.00
32067;BME280;18573;47.890;35.066;2022-12-18T00:11:32;100507.98;;;11.40;100.00
32067;BME280;18573;47.890;35.066;2022-12-18T00:14:01;100507.98;;;11.40;100.00
32067;BME280;18573;47.890;35.066;2022-12-18T00:16:30;100510.75;;;11.52;100.00
32067;BME280;18573;47.890;35.066;2022-12-18T00:19:00;100513.50;;;11.45;100.00
32067;BME280;18573;47.890;35.066;2022-12-18T00:21:33;100525.97;;;11.42;100.00
32067;BME280;18573;47.890;35.066;2022-12-18T00:24:03;100522.94;;;11.48;100.00
32067;BME280;18573;47.890;35.066;2022-12-18T00:26:34;100522.94;;;11.48;100.00
32067;BME280;18573;47.890;35.066;2022-12-18T00:29:12;100518.63;;;11.47;100.00
32067;BME280;18573;47.890;35.066;2022-12-18T00:31:36;100518.63;;;11.47;100.00
32067;BME280;18573;47.890;35.066;2022-12-18T00:34:06;100518.11;;;11.47;100.00
32067;BME280;18573;47.890;35.066;2022-12-18T00:36:35;100513.17;;;11.35;100.00
32067;BME280;18573;47.890;35.066;2022-12-18T00:39:05;100513.17;;;11.35;100.00
32067;BME280;18573;47.890;35.066;2022-12-18T00:41:34;100508.37;;;11.28;100.00
32067;BME280;18573;47.890;35.066;2022-12-18T00:44:21;100506.05;;;11.22;100.00
32067;BME280;18573;47.890;35.066;2022-12-18T00:46:50;100505.92;;;11.26;100.00
32067;BME280;18573;47.890;35.066;2022-12-18T00:49:20;100505.92;;;11.26;100.00
32067;BME280;18573;47.890;35.066;2022-12-18T00:51:49;100519.75;;;11.16;100.00
32067;BME280;18573;47.890;35.066;2022-12-18T00:54:18;100526.97;;;11.16;100.00
32067;BME280;18573;47.890;35.066;2022-12-18T00:56:47;100528.26;;;11.07;100.00
32067;BME280;18573;47.890;35.066;2022-12-18T00:59:17;100530.04;;;11.20;100.00
32067;BME280;18573;47.890;35.066;2022-12-18T01:01:47;100530.04;;;11.20;100.00
32067;BME280;18573;47.890;35.066;2022-12-18T01:04:16;100535.78;;;11.23;100.00
32067;BME280;18573;47.890;35.066;2022-12-18T01:06:45;100540.47;;;11.12;100.00
32067;BME280;18573;47.890;35.066;2022-12-18T01:09:14;100537.84;;;11.05;100.00
32067;BME280;18573;47.890;35.066;2022-12-18T01:11:43;100537.84;;;11.05;100.00
32067;BME280;18573;47.890;35.066;2022-12-18T01:14:12;100552.14;;;11.08;100.00
32067;BME280;18573;47.890;35.066;2022-12-18T01:16:41;100548.16;;;11.02;100.00
32067;BME280;18573;47.890;35.066;2022-12-18T01:19:11;100548.33;;;11.07;100.00
32067;BME280;18573;47.890;35.066;2022-12-18T01:21:40;100549.02;;;11.11;100.00
32067;BME280;18573;47.890;35.066;2022-12-18T01:24:11;100549.61;;;10.98;100.00
32067;BME280;18573;47.890;35.066;2022-12-18T01:26:41;100542.97;;;10.91;100.00
32067;BME280;18573;47.890;35.066;2022-12-18T01:29:10;100543.21;;;10.83;100.00
32067;BME280;18573;47.890;35.066;2022-12-18T01:31:39;100543.21;;;10.83;100.00
32067;BME280;18573;47.890;35.066;2022-12-18T01:34:09;100554.07;;;10.95;100.00
32067;BME280;18573;47.890;35.066;2022-12-18T01:36:38;100559.61;;;10.93;100.00
32067;BME280;18573;47.890;35.066;2022-12-18T01:39:12;100559.61;;;10.93;100.00
32067;BME280;18573;47.890;35.066;2022-12-18T01:41:42;100559.16;;;10.80;100.00
32067;BME280;18573;47.890;35.066;2022-12-18T01:44:57;100559.44;;;10.88;100.00
32067;BME280;18573;47.890;35.066;2022-12-18T01:47:43;100575.69;;;10.64;100.00
32067;BME280;18573;47.890;35.066;2022-12-18T01:50:33;100575.69;;;10.64;100.00
32067;BME280;18573;47.890;35.066;2022-12-18T01:53:17;100574.61;;;10.49;100.00
32067;BME280;18573;47.890;35.066;2022-12-18T01:55:55;100576.69;;;10.34;100.00
32067;BME280;18573;47.890;35.066;2022-12-18T01:58:43;100586.04;;;10.34;100.00
32067;BME280;18573;47.890;35.066;2022-12-18T02:01:11;100597.97;;;10.18;100.00
32067;BME280;18573;47.890;35.066;2022-12-18T02:03:42;100583.98;;;10.16;100.00
32067;BME280;18573;47.890;35.066;2022-12-18T02:06:27;100591.19;;;10.02;100.00
32067;BME280;18573;47.890;35.066;2022-12-18T02:08:58;100592.74;;;10.01;100.00
32067;BME280;18573;47.890;35.066;2022-12-18T02:11:39;100592.92;;;9.86;100.00
32067;BME280;18573;47.890;35.066;2022-12-18T02:14:16;100592.92;;;9.86;100.00
32067;BME280;18573;47.890;35.066;2022-12-18T02:27:55;100621.70;;;8.96;100.00
32067;BME280;18573;47.890;35.066;2022-12-18T02:30:26;100637.28;;;8.75;100.00
32067;BME280;18573;47.890;35.066;2022-12-18T02:32:58;100637.28;;;8.75;100.00
32067;BME280;18573;47.890;35.066;2022-12-18T02:35:30;100648.10;;;8.67;100.00
32067;BME280;18573;47.890;35.066;2022-12-18T02:38:01;100662.20;;;8.44;100.00
32067;BME280;18573;47.890;35.066;2022-12-18T02:40:30;100669.52;;;8.24;100.00
32067;BME280;18573;47.890;35.066;2022-12-18T02:43:14;100673.64;;;8.05;100.00
32067;BME280;18573;47.890;35.066;2022-12-18T02:45:48;100678.72;;;8.00;100.00
32067;BME280;18573;47.890;35.066;2022-12-18T02:48:20;100694.31;;;7.82;100.00
32067;BME280;18573;47.890;35.066;2022-12-18T02:51:04;100688.59;;;7.64;100.00
32067;BME280;18573;47.890;35.066;2022-12-18T02:53:40;100699.78;;;7.84;100.00
32067;BME280;18573;47.890;35.066;2022-12-18T02:56:19;100699.78;;;7.84;100.00
32067;BME280;18573;47.890;35.066;2022-12-18T02:59:12;100701.14;;;7.59;100.00
32067;BME280;18573;47.890;35.066;2022-12-18T03:01:48;100697.86;;;7.68;100.00
32067;BME280;18573;47.890;35.066;2022-12-18T03:06:49;100707.42;;;7.73;100.00
32067;BME280;18573;47.890;35.066;2022-12-18T03:09:29;100711.42;;;7.36;100.00
32067;BME280;18573;47.890;35.066;2022-12-18T03:11:56;100720.82;;;7.03;100.00
32067;BME280;18573;47.890;35.066;2022-12-18T03:14:45;100732.98;;;6.68;100.00
32067;BME280;18573;47.890;35.066;2022-12-18T03:17:17;100731.20;;;6.45;100.00
32067;BME280;18573;47.890;35.066;2022-12-18T03:19:48;100745.39;;;6.52;100.00
32067;BME280;18573;47.890;35.066;2022-12-18T03:22:18;100749.34;;;6.56;100.00
32067;BME280;18573;47.890;35.066;2022-12-18T03:24:49;100758.15;;;6.76;100.00
32067;BME280;18573;47.890;35.066;2022-12-18T03:27:21;100759.43;;;6.42;100.00
32067;BME280;18573;47.890;35.066;2022-12-18T03:30:00;100768.16;;;6.32;100.00
32067;BME280;18573;47.890;35.066;2022-12-18T03:32:29;100770.14;;;6.30;100.00
32067;BME280;18573;47.890;35.066;2022-12-18T03:35:00;100774.55;;;6.42;100.00
32067;BME280;18573;47.890;35.066;2022-12-18T03:37:30;100783.24;;;6.54;100.00
32067;BME280;18573;47.890;35.066;2022-12-18T03:39:59;100783.72;;;6.58;100.00
32067;BME280;18573;47.890;35.066;2022-12-18T03:42:47;100787.77;;;6.50;100.00
32067;BME280;18573;47.890;35.066;2022-12-18T03:48:05;100798.64;;;6.40;100.00
32067;BME280;18573;47.890;35.066;2022-12-18T03:53:40;100798.12;;;6.41;100.00
32067;BME280;18573;47.890;35.066;2022-12-18T03:56:05;100796.72;;;6.26;100.00
32067;BME280;18573;47.890;35.066;2022-12-18T03:58:37;100796.72;;;6.26;100.00
32067;BME280;18573;47.890;35.066;2022-12-18T04:01:10;100812.56;;;6.15;100.00
32067;BME280;18573;47.890;35.066;2022-12-18T04:03:41;100813.01;;;6.00;100.00
32067;BME280;18573;47.890;35.066;2022-12-18T04:06:12;100821.95;;;5.99;100.00
32067;BME280;18573;47.890;35.066;2022-12-18T04:08:42;100825.97;;;5.91;100.00
32067;BME280;18573;47.890;35.066;2022-12-18T04:11:12;100821.50;;;5.87;100.00
32067;BME280;18573;47.890;35.066;2022-12-18T04:13:42;100815.73;;;5.75;100.00
32067;BME280;18573;47.890;35.066;2022-12-18T04:16:12;100814.14;;;5.62;100.00
32067;BME280;18573;47.890;35.066;2022-12-18T04:18:41;100828.03;;;5.76;100.00
32067;BME280;18573;47.890;35.066;2022-12-18T04:21:10;100831.74;;;5.59;100.00
32067;BME280;18573;47.890;35.066;2022-12-18T04:23:39;100831.74;;;5.59;100.00
32067;BME280;18573;47.890;35.066;2022-12-18T04:26:09;100842.30;;;5.67;100.00
32067;BME280;18573;47.890;35.066;2022-12-18T04:28:38;100852.14;;;5.58;100.00
32067;BME280;18573;47.890;35.066;2022-12-18T04:31:07;100854.09;;;5.65;100.00
32067;BME280;18573;47.890;35.066;2022-12-18T04:33:36;100853.69;;;5.41;100.00
32067;BME280;18573;47.890;35.066;2022-12-18T04:36:06;100870.06;;;5.40;100.00
32067;BME280;18573;47.890;35.066;2022-12-18T04:38:36;100876.73;;;5.32;100.00
32067;BME280;18573;47.890;35.066;2022-12-18T04:41:05;100871.57;;;5.39;100.00
32067;BME280;18573;47.890;35.066;2022-12-18T04:43:34;100883.38;;;5.28;100.00
32067;BME280;18573;47.890;35.066;2022-12-18T04:46:05;100875.75;;;5.08;100.00
32067;BME280;18573;47.890;35.066;2022-12-18T04:48:36;100888.98;;;5.41;100.00
32067;BME280;18573;47.890;35.066;2022-12-18T04:51:05;100892.95;;;5.45;100.00
32067;BME280;18573;47.890;35.066;2022-12-18T04:53:35;100896.23;;;5.55;100.00
32067;BME280;18573;47.890;35.066;2022-12-18T04:56:13;100889.29;;;5.50;100.00
32067;BME280;18573;47.890;35.066;2022-12-18T04:58:43;100896.55;;;5.56;100.00
32067;BME280;18573;47.890;35.066;2022-12-18T05:01:14;100896.55;;;5.56;100.00
32067;BME280;18573;47.890;35.066;2022-12-18T05:03:43;100897.89;;;5.52;100.00
32067;BME280;18573;47.890;35.066;2022-12-18T05:06:13;100898.91;;;5.39;100.00
32067;BME280;18573;47.890;35.066;2022-12-18T05:08:42;100904.39;;;5.42;100.00
32067;BME280;18573;47.890;35.066;2022-12-18T05:11:14;100903.89;;;5.34;100.00
32067;BME280;18573;47.890;35.066;2022-12-18T05:13:44;100918.29;;;5.44;100.00
32067;BME280;18573;47.890;35.066;2022-12-18T05:16:14;100924.91;;;5.48;100.00
32067;BME280;18573;47.890;35.066;2022-12-18T05:18:43;100924.91;;;5.48;100.00
32067;BME280;18573;47.890;35.066;2022-12-18T05:21:12;100927.74;;;5.50;100.00
32067;BME280;18573;47.890;35.066;2022-12-18T05:23:41;100934.16;;;5.72;100.00
32067;BME280;18573;47.890;35.066;2022-12-18T05:26:14;100931.05;;;5.44;100.00
32067;BME280;18573;47.890;35.066;2022-12-18T05:28:43;100929.39;;;5.51;100.00
32067;BME280;18573;47.890;35.066;2022-12-18T05:31:12;100928.56;;;5.55;100.00
32067;BME280;18573;47.890;35.066;2022-12-18T05:33:41;100951.76;;;5.49;100.00
32067;BME280;18573;47.890;35.066;2022-12-18T05:36:11;100972.14;;;5.61;100.00
32067;BME280;18573;47.890;35.066;2022-12-18T05:38:40;100980.59;;;5.68;100.00
32067;BME280;18573;47.890;35.066;2022-12-18T05:41:09;100987.23;;;5.60;100.00
32067;BME280;18573;47.890;35.066;2022-12-18T05:43:40;100998.02;;;5.50;100.00
32067;BME280;18573;47.890;35.066;2022-12-18T05:46:15;100999.34;;;5.42;100.00
32067;BME280;18573;47.890;35.066;2022-12-18T05:48:47;101003.64;;;5.31;100.00
32067;BME280;18573;47.890;35.066;2022-12-18T05:51:19;101012.06;;;4.94;100.00
32067;BME280;18573;47.890;35.066;2022-12-18T05:53:49;101014.75;;;5.10;100.00
32067;BME280;18573;47.890;35.066;2022-12-18T05:56:20;101014.27;;;5.23;100.00
32067;BME280;18573;47.890;35.066;2022-12-18T05:58:52;101026.00;;;5.16;100.00
32067;BME280;18573;47.890;35.066;2022-12-18T06:01:24;101026.34;;;5.05;100.00
32067;BME280;18573;47.890;35.066;2022-12-18T06:03:54;101037.42;;;5.13;100.00
32067;BME280;18573;47.890;35.066;2022-12-18T06:06:26;101029.15;;;5.12;100.00
32067;BME280;18573;47.890;35.066;2022-12-18T06:08:56;101034.29;;;5.21;100.00
32067;BME280;18573;47.890;35.066;2022-12-18T06:11:27;101037.22;;;4.90;100.00
32067;BME280;18573;47.890;35.066;2022-12-18T06:13:56;101037.22;;;4.90;100.00
32067;BME280;18573;47.890;35.066;2022-12-18T06:16:28;101050.94;;;4.73;100.00
32067;BME280;18573;47.890;35.066;2022-12-18T06:18:59;101061.67;;;4.71;100.00
32067;BME280;18573;47.890;35.066;2022-12-18T06:21:30;101057.08;;;4.77;100.00
32067;BME280;18573;47.890;35.066;2022-12-18T06:24:00;101068.72;;;4.54;100.00
32067;BME280;18573;47.890;35.066;2022-12-18T06:26:29;101080.84;;;4.61;100.00
32067;BME280;18573;47.890;35.066;2022-12-18T06:28:58;101071.84;;;4.50;100.00
32067;BME280;18573;47.890;35.066;2022-12-18T06:31:27;101083.92;;;4.48;100.00
32067;BME280;18573;47.890;35.066;2022-12-18T06:33:57;101089.17;;;4.40;100.00
32067;BME280;18573;47.890;35.066;2022-12-18T06:36:29;101088.44;;;4.26;100.00
32067;BME280;18573;47.890;35.066;2022-12-18T06:38:58;101099.50;;;4.21;100.00
32067;BME280;18573;47.890;35.066;2022-12-18T06:41:27;101089.89;;;4.46;100.00
32067;BME280;18573;47.890;35.066;2022-12-18T06:43:58;101090.44;;;4.62;100.00
32067;BME280;18573;47.890;35.066;2022-12-18T06:46:27;101089.97;;;4.67;100.00
32067;BME280;18573;47.890;35.066;2022-12-18T06:48:56;101103.27;;;4.79;100.00
32067;BME280;18573;47.890;35.066;2022-12-18T06:51:25;101095.32;;;4.79;100.00
32067;BME280;18573;47.890;35.066;2022-12-18T06:53:54;101090.17;;;4.73;100.00
32067;BME280;18573;47.890;35.066;2022-12-18T06:56:23;101101.00;;;4.92;100.00
32067;BME280;18573;47.890;35.066;2022-12-18T06:58:53;101107.30;;;4.91;100.00
32067;BME280;18573;47.890;35.066;2022-12-18T07:01:23;101112.70;;;4.77;100.00
32067;BME280;18573;47.890;35.066;2022-12-18T07:03:53;101108.96;;;4.96;100.00
32067;BME280;18573;47.890;35.066;2022-12-18T07:06:24;101112.58;;;4.95;100.00
32067;BME280;18573;47.890;35.066;2022-12-18T07:08:54;101121.63;;;5.23;100.00
32067;BME280;18573;47.890;35.066;2022-12-18T07:11:23;101120.45;;;5.21;100.00
32067;BME280;18573;47.890;35.066;2022-12-18T07:13:53;101120.45;;;5.21;100.00
32067;BME280;18573;47.890;35.066;2022-12-18T07:16:23;101129.23;;;5.14;100.00
32067;BME280;18573;47.890;35.066;2022-12-18T07:18:54;101130.38;;;5.15;100.00
32067;BME280;18573;47.890;35.066;2022-12-18T07:21:24;101125.28;;;4.79;100.00
32067;BME280;18573;47.890;35.066;2022-12-18T07:23:53;101129.41;;;4.74;100.00
32067;BME280;18573;47.890;35.066;2022-12-18T07:26:23;101141.33;;;4.74;100.00
32067;BME280;18573;47.890;35.066;2022-12-18T07:28:56;101136.16;;;4.64;100.00
32067;BME280;18573;47.890;35.066;2022-12-18T07:31:26;101145.19;;;4.88;100.00
32067;BME280;18573;47.890;35.066;2022-12-18T07:33:56;101148.25;;;4.71;100.00
32067;BME280;18573;47.890;35.066;2022-12-18T07:36:24;101164.23;;;4.87;100.00
32067;BME280;18573;47.890;35.066;2022-12-18T07:38:54;101164.39;;;4.90;100.00
32067;BME280;18573;47.890;35.066;2022-12-18T07:41:23;101174.81;;;4.83;100.00
32067;BME280;18573;47.890;35.066;2022-12-18T07:43:52;101182.61;;;4.89;100.00
32067;BME280;18573;47.890;35.066;2022-12-18T07:46:22;101173.14;;;4.78;100.00
32067;BME280;18573;47.890;35.066;2022-12-18T07:48:51;101175.92;;;4.76;100.00
32067;BME280;18573;47.890;35.066;2022-12-18T07:51:20;101175.92;;;4.76;100.00
32067;BME280;18573;47.890;35.066;2022-12-18T07:53:49;101178.79;;;4.83;100.00
32067;BME280;18573;47.890;35.066;2022-12-18T07:56:19;101180.06;;;4.75;100.00
32067;BME280;18573;47.890;35.066;2022-12-18T07:58:50;101181.50;;;4.65;100.00
32067;BME280;18573;47.890;35.066;2022-12-18T08:01:20;101184.43;;;4.58;100.00
32067;BME280;18573;47.890;35.066;2022-12-18T08:03:49;101182.12;;;4.55;100.00
32067;BME280;18573;47.890;35.066;2022-12-18T08:06:19;101182.12;;;4.55;100.00
32067;BME280;18573;47.890;35.066;2022-12-18T08:08:51;101182.10;;;4.29;100.00
32067;BME280;18573;47.890;35.066;2022-12-18T08:11:22;101185.70;;;4.46;100.00
32067;BME280;18573;47.890;35.066;2022-12-18T08:13:51;101192.34;;;4.54;100.00
32067;BME280;18573;47.890;35.066;2022-12-18T08:16:21;101195.56;;;4.40;100.00
32067;BME280;18573;47.890;35.066;2022-12-18T08:18:53;101193.89;;;4.61;100.00
32067;BME280;18573;47.890;35.066;2022-12-18T08:21:27;101193.15;;;4.46;100.00
32067;BME280;18573;47.890;35.066;2022-12-18T08:23:58;101198.06;;;4.67;100.00
32067;BME280;18573;47.890;35.066;2022-12-18T08:26:29;101202.25;;;4.74;100.00
32067;BME280;18573;47.890;35.066;2022-12-18T08:29:00;101197.59;;;4.72;100.00
32067;BME280;18573;47.890;35.066;2022-12-18T08:31:30;101197.59;;;4.72;100.00
32067;BME280;18573;47.890;35.066;2022-12-18T08:33:59;101203.36;;;4.67;100.00
32067;BME280;18573;47.890;35.066;2022-12-18T08:36:28;101201.56;;;4.72;100.00
32067;BME280;18573;47.890;35.066;2022-12-18T08:38:57;101200.66;;;4.89;100.00
32067;BME280;18573;47.890;35.066;2022-12-18T08:41:26;101200.66;;;4.89;100.00
32067;BME280;18573;47.890;35.066;2022-12-18T08:43:56;101191.31;;;4.77;100.00
32067;BME280;18573;47.890;35.066;2022-12-18T08:46:44;101191.31;;;4.77;100.00
32067;BME280;18573;47.890;35.066;2022-12-18T08:49:13;101200.19;;;4.60;100.00
32067;BME280;18573;47.890;35.066;2022-12-18T08:51:42;101201.69;;;4.40;100.00
32067;BME280;18573;47.890;35.066;2022-12-18T08:54:14;101197.85;;;4.35;100.00
32067;BME280;18573;47.890;35.066;2022-12-18T08:56:43;101195.34;;;4.29;100.00
32067;BME280;18573;47.890;35.066;2022-12-18T08:59:12;101207.45;;;4.36;100.00
32067;BME280;18573;47.890;35.066;2022-12-18T09:01:42;101207.45;;;4.36;100.00
32067;BME280;18573;47.890;35.066;2022-12-18T09:04:12;101199.17;;;4.35;100.00
32067;BME280;18573;47.890;35.066;2022-12-18T09:06:41;101199.17;;;4.35;100.00
32067;BME280;18573;47.890;35.066;2022-12-18T09:09:11;101207.47;;;4.62;100.00
32067;BME280;18573;47.890;35.066;2022-12-18T09:11:40;101210.98;;;4.22;100.00
32067;BME280;18573;47.890;35.066;2022-12-18T09:14:10;101204.40;;;4.48;100.00
32067;BME280;18573;47.890;35.066;2022-12-18T09:16:39;101208.23;;;4.54;100.00
32067;BME280;18573;47.890;35.066;2022-12-18T09:19:09;101205.75;;;4.52;100.00
32067;BME280;18573;47.890;35.066;2022-12-18T09:21:39;101213.14;;;4.45;100.00
32067;BME280;18573;47.890;35.066;2022-12-18T09:24:17;101208.80;;;4.18;100.00
32067;BME280;18573;47.890;35.066;2022-12-18T09:26:41;101208.80;;;4.18;100.00
32067;BME280;18573;47.890;35.066;2022-12-18T09:29:12;101207.23;;;4.07;100.00
32067;BME280;18573;47.890;35.066;2022-12-18T09:31:44;101207.41;;;4.10;100.00
32067;BME280;18573;47.890;35.066;2022-12-18T09:34:13;101209.84;;;4.03;100.00
32067;BME280;18573;47.890;35.066;2022-12-18T09:36:42;101212.49;;;3.85;100.00
32067;BME280;18573;47.890;35.066;2022-12-18T09:39:11;101218.08;;;4.00;100.00
32067;BME280;18573;47.890;35.066;2022-12-18T09:41:50;101211.17;;;3.85;100.00
32067;BME280;18573;47.890;35.066;2022-12-18T09:44:24;101216.31;;;3.55;100.00
32067;BME280;18573;47.890;35.066;2022-12-18T09:47:14;101216.31;;;3.55;100.00
32067;BME280;18573;47.890;35.066;2022-12-18T09:49:46;101225.41;;;3.70;100.00
32067;BME280;18573;47.890;35.066;2022-12-18T09:57:59;101227.47;;;3.63;100.00
32067;BME280;18573;47.890;35.066;2022-12-18T10:00:27;101227.47;;;3.63;100.00
32067;BME280;18573;47.890;35.066;2022-12-18T10:03:08;101245.94;;;3.59;100.00
32067;BME280;18573;47.890;35.066;2022-12-18T10:08:22;101250.52;;;3.39;100.00
32067;BME280;18573;47.890;35.066;2022-12-18T10:10:53;101251.34;;;3.39;100.00
32067;BME280;18573;47.890;35.066;2022-12-18T10:13:44;101266.44;;;3.33;100.00
32067;BME280;18573;47.890;35.066;2022-12-18T10:19:22;101267.42;;;3.18;100.00
32067;BME280;18573;47.890;35.066;2022-12-18T10:24:48;101264.59;;;2.92;100.00
32067;BME280;18573;47.890;35.066;2022-12-18T10:27:18;101271.19;;;2.92;100.00
32067;BME280;18573;47.890;35.066;2022-12-18T10:29:48;101271.19;;;2.92;100.00
32067;BME280;18573;47.890;35.066;2022-12-18T10:32:20;101275.58;;;2.97;100.00
32067;BME280;18573;47.890;35.066;2022-12-18T10:34:51;101274.63;;;2.89;100.00
32067;BME280;18573;47.890;35.066;2022-12-18T10:37:25;101287.22;;;2.81;100.00
32067;BME280;18573;47.890;35.066;2022-12-18T10:40:14;101287.22;;;2.81;100.00
32067;BME280;18573;47.890;35.066;2022-12-18T10:42:45;101287.31;;;2.99;100.00
32067;BME280;18573;47.890;35.066;2022-12-18T10:45:16;101278.31;;;2.82;100.00
32067;BME280;18573;47.890;35.066;2022-12-18T10:47:51;101285.16;;;2.98;100.00
32067;BME280;18573;47.890;35.066;2022-12-18T10:50:26;101285.16;;;2.98;100.00
32067;BME280;18573;47.890;35.066;2022-12-18T10:53:03;101288.63;;;2.99;100.00
32067;BME280;18573;47.890;35.066;2022-12-18T10:55:38;101288.63;;;2.99;100.00
32067;BME280;18573;47.890;35.066;2022-12-18T11:01:02;101289.49;;;2.90;100.00
32067;BME280;18573;47.890;35.066;2022-12-18T11:06:10;101303.09;;;2.62;100.00
32067;BME280;18573;47.890;35.066;2022-12-18T11:08:40;101301.36;;;2.47;100.00
32067;BME280;18573;47.890;35.066;2022-12-18T11:11:22;101312.14;;;2.30;100.00
32067;BME280;18573;47.890;35.066;2022-12-18T11:14:00;101312.14;;;2.30;100.00
32067;BME280;18573;47.890;35.066;2022-12-18T11:16:36;101303.89;;;2.39;100.00
32067;BME280;18573;47.890;35.066;2022-12-18T11:21:52;101309.02;;;2.40;100.00
32067;BME280;18573;47.890;35.066;2022-12-18T11:24:29;101309.02;;;2.40;100.00
32067;BME280;18573;47.890;35.066;2022-12-18T11:27:01;101312.06;;;2.45;100.00
32067;BME280;18573;47.890;35.066;2022-12-18T11:29:36;101307.05;;;2.42;100.00
32067;BME280;18573;47.890;35.066;2022-12-18T11:35:50;101319.42;;;2.32;100.00
32067;BME280;18573;47.890;35.066;2022-12-18T11:37:34;101316.23;;;2.58;100.00
32067;BME280;18573;47.890;35.066;2022-12-18T11:43:02;101318.10;;;2.32;100.00
32067;BME280;18573;47.890;35.066;2022-12-18T11:45:32;101320.25;;;2.33;100.00
32067;BME280;18573;47.890;35.066;2022-12-18T11:48:13;101326.84;;;2.52;100.00
32067;BME280;18573;47.890;35.066;2022-12-18T11:50:53;101324.58;;;2.43;100.00
32067;BME280;18573;47.890;35.066;2022-12-18T11:53:19;101344.15;;;2.31;100.00
32067;BME280;18573;47.890;35.066;2022-12-18T11:56:01;101332.91;;;2.39;100.00
32067;BME280;18573;47.890;35.066;2022-12-18T12:01:06;101323.23;;;2.24;100.00
32067;BME280;18573;47.890;35.066;2022-12-18T12:09:32;101352.55;;;2.21;100.00
32067;BME280;18573;47.890;35.066;2022-12-18T12:18:01;101372.34;;;2.31;100.00
32067;BME280;18573;47.890;35.066;2022-12-18T12:20:31;101373.86;;;2.43;100.00
32067;BME280;18573;47.890;35.066;2022-12-18T12:23:06;101360.51;;;2.25;100.00
32067;BME280;18573;47.890;35.066;2022-12-18T12:25:44;101352.06;;;2.21;100.00
32067;BME280;18573;47.890;35.066;2022-12-18T12:28:19;101375.87;;;2.25;100.00
32067;BME280;18573;47.890;35.066;2022-12-18T12:30:53;101371.63;;;2.28;100.00
32067;BME280;18573;47.890;35.066;2022-12-18T12:39:03;101381.20;;;2.29;100.00
32067;BME280;18573;47.890;35.066;2022-12-18T12:41:30;101386.07;;;2.34;100.00
32067;BME280;18573;47.890;35.066;2022-12-18T12:44:26;101394.44;;;2.39;100.00
32067;BME280;18573;47.890;35.066;2022-12-18T12:46:56;101387.62;;;2.46;100.00
32067;BME280;18573;47.890;35.066;2022-12-18T12:49:29;101405.75;;;2.45;100.00
32067;BME280;18573;47.890;35.066;2022-12-18T12:52:12;101394.70;;;2.36;100.00
32067;BME280;18573;47.890;35.066;2022-12-18T12:54:42;101407.34;;;2.42;100.00
32067;BME280;18573;47.890;35.066;2022-12-18T12:57:15;101412.12;;;2.33;100.00
32067;BME280;18573;47.890;35.066;2022-12-18T12:59:56;101412.44;;;2.24;100.00
32067;BME280;18573;47.890;35.066;2022-12-18T13:02:38;101407.75;;;2.38;100.00
32067;BME280;18573;47.890;35.066;2022-12-18T13:05:26;101415.27;;;2.08;100.00
32067;BME280;18573;47.890;35.066;2022-12-18T13:08:07;101413.95;;;2.08;100.00
32067;BME280;18573;47.890;35.066;2022-12-18T13:10:41;101423.87;;;1.85;100.00
32067;BME280;18573;47.890;35.066;2022-12-18T13:13:12;101424.08;;;1.87;100.00
32067;BME280;18573;47.890;35.066;2022-12-18T13:16:04;101423.50;;;1.84;100.00
32067;BME280;18573;47.890;35.066;2022-12-18T13:18:21;101426.05;;;1.95;100.00
32067;BME280;18573;47.890;35.066;2022-12-18T13:23:29;101425.73;;;1.88;100.00
32067;BME280;18573;47.890;35.066;2022-12-18T13:28:53;101427.03;;;1.94;100.00
32067;BME280;18573;47.890;35.066;2022-12-18T13:34:27;101435.37;;;1.99;100.00
32067;BME280;18573;47.890;35.066;2022-12-18T13:38:02;101437.95;;;2.05;100.00
32067;BME280;18573;47.890;35.066;2022-12-18T13:39:51;101442.39;;;2.04;100.00
32067;BME280;18573;47.890;35.066;2022-12-18T13:42:31;101444.80;;;2.01;100.00
32067;BME280;18573;47.890;35.066;2022-12-18T13:45:39;101453.34;;;1.99;100.00
32067;BME280;18573;47.890;35.066;2022-12-18T13:48:17;101453.34;;;1.99;100.00
32067;BME280;18573;47.890;35.066;2022-12-18T13:50:56;101453.34;;;1.99;100.00
32067;BME280;18573;47.890;35.066;2022-12-18T13:53:29;101463.02;;;1.89;100.00
32067;BME280;18573;47.890;35.066;2022-12-18T13:55:54;101459.11;;;1.99;100.00
32067;BME280;18573;47.890;35.066;2022-12-18T13:58:23;101459.11;;;1.99;100.00
32067;BME280;18573;47.890;35.066;2022-12-18T14:00:52;101459.11;;;1.99;100.00
32067;BME280;18573;47.890;35.066;2022-12-18T14:03:24;101473.23;;;1.98;100.00
32067;BME280;18573;47.890;35.066;2022-12-18T14:06:01;101463.98;;;2.03;100.00
32067;BME280;18573;47.890;35.066;2022-12-18T14:08:43;101470.39;;;1.95;100.00
32067;BME280;18573;47.890;35.066;2022-12-18T14:11:18;101476.23;;;1.84;100.00
32067;BME280;18573;47.890;35.066;2022-12-18T14:13:43;101477.77;;;2.01;100.00
32067;BME280;18573;47.890;35.066;2022-12-18T14:16:15;101473.57;;;1.89;100.00
32067;BME280;18573;47.890;35.066;2022-12-18T14:18:57;101470.45;;;1.90;100.00
32067;BME280;18573;47.890;35.066;2022-12-18T14:21:29;101488.53;;;1.89;100.00